createdAt,value
2023-04-16T00:01:05.787Z,78.65
2023-04-16T00:03:32.891Z,78.95
2023-04-16T00:06:04.169Z,79.67
2023-04-16T00:08:31.347Z,79.48
2023-04-16T00:10:58.113Z,79.53
2023-04-16T00:13:26.192Z,78.69
2023-04-16T00:15:52.912Z,78.27
2023-04-16T00:18:21.138Z,79.59
2023-04-16T00:20:48.860Z,79.14
2023-04-16T00:23:17.453Z,78.95
2023-04-16T00:25:44.167Z,78.32
2023-04-16T00:28:11.191Z,79.49
2023-04-16T00:30:38.305Z,79.14
2023-04-16T00:33:05.508Z,78.53
2023-04-16T00:35:32.343Z,78.33
2023-04-16T00:37:59.211Z,79.61
2023-04-16T00:40:29.738Z,79.27
2023-04-16T00:42:56.589Z,78.31
2023-04-16T00:45:23.845Z,79.47
2023-04-16T00:47:50.815Z,79.31
2023-04-16T00:50:17.876Z,79.80
2023-04-16T00:52:49.534Z,79.05
2023-04-16T00:55:18.625Z,79.21
2023-04-16T00:57:46.144Z,80.81
2023-04-16T01:00:16.591Z,80.10
2023-04-16T01:02:43.588Z,79.66
2023-04-16T01:05:10.464Z,80.32
2023-04-16T01:07:37.289Z,80.96
2023-04-16T01:10:04.361Z,79.91
2023-04-16T01:12:31.211Z,80.17
2023-04-16T01:14:58.191Z,80.12
2023-04-16T01:17:24.977Z,80.40
2023-04-16T01:19:51.827Z,80.66
2023-04-16T01:22:18.640Z,79.75
2023-04-16T01:24:45.643Z,80.12
2023-04-16T01:27:12.344Z,79.97
2023-04-16T01:29:39.169Z,79.90
2023-04-16T01:32:06.116Z,79.91
2023-04-16T01:34:35.991Z,79.85
2023-04-16T01:37:03.927Z,79.81
2023-04-16T01:39:30.749Z,79.97
2023-04-16T01:41:58.084Z,79.67
2023-04-16T01:44:25.640Z,80.21
2023-04-16T01:46:52.890Z,79.85
2023-04-16T01:49:21.430Z,80.14
2023-04-16T01:51:48.505Z,80.53
2023-04-16T01:54:15.385Z,80.67
2023-04-16T01:56:42.174Z,80.38
2023-04-16T01:59:09.480Z,80.76
2023-04-16T02:01:40.464Z,81.20
2023-04-16T02:04:08.266Z,80.82
2023-04-16T02:06:35.043Z,80.78
2023-04-16T02:09:02.043Z,80.83
2023-04-16T02:11:29.108Z,80.35
2023-04-16T02:13:56.299Z,80.56
2023-04-16T02:16:23.216Z,80.36
2023-04-16T02:19:11.722Z,80.66
2023-04-16T02:21:39.866Z,80.88
2023-04-16T02:24:07.034Z,80.47
2023-04-16T02:26:35.065Z,81.22
2023-04-16T02:29:08.203Z,80.47
2023-04-16T02:31:41.239Z,80.89
2023-04-16T02:34:09.981Z,80.96
2023-04-16T02:36:36.787Z,80.67
2023-04-16T02:39:04.070Z,80.90
2023-04-16T02:41:30.894Z,80.41
2023-04-16T02:43:57.672Z,80.40
2023-04-16T02:46:24.816Z,80.48
2023-04-16T02:48:51.785Z,80.51
2023-04-16T02:51:18.714Z,80.75
2023-04-16T02:53:46.225Z,80.72
2023-04-16T02:56:13.807Z,80.34
2023-04-16T02:58:40.969Z,80.76
2023-04-16T03:01:07.880Z,80.55
2023-04-16T03:03:34.867Z,80.43
2023-04-16T03:06:01.610Z,80.73
2023-04-16T03:08:28.645Z,80.88
2023-04-16T03:10:55.573Z,80.79
2023-04-16T03:13:22.487Z,80.60
2023-04-16T03:15:50.072Z,80.90
2023-04-16T03:18:16.934Z,80.74
2023-04-16T03:20:43.768Z,80.66
2023-04-16T03:23:11.659Z,80.65
2023-04-16T03:25:40.641Z,80.77
2023-04-16T03:28:09.171Z,80.64
2023-04-16T03:30:36.896Z,80.70
2023-04-16T03:33:03.797Z,81.16
2023-04-16T03:35:31.315Z,81.25
2023-04-16T03:37:58.112Z,81.40
2023-04-16T03:40:25.296Z,81.53
2023-04-16T03:42:53.026Z,82.01
2023-04-16T03:45:19.999Z,82.33
2023-04-16T03:47:52.759Z,82.20
2023-04-16T03:50:22.829Z,82.31
2023-04-16T03:52:49.713Z,82.87
2023-04-16T03:55:17.681Z,82.40
2023-04-16T03:57:45.373Z,81.91
2023-04-16T04:00:15.156Z,81.99
2023-04-16T04:02:53.007Z,81.88
2023-04-16T04:05:20.471Z,81.96
2023-04-16T04:07:47.996Z,81.50
2023-04-16T04:10:14.962Z,81.37
2023-04-16T04:12:43.190Z,81.41
2023-04-16T04:15:10.920Z,81.32
2023-04-16T04:17:37.774Z,81.29
2023-04-16T04:20:05.007Z,80.81
2023-04-16T04:22:31.977Z,80.94
2023-04-16T04:24:59.090Z,81.58
2023-04-16T04:27:28.406Z,81.77
2023-04-16T04:29:55.154Z,82.02
2023-04-16T04:32:22.671Z,81.69
2023-04-16T04:34:49.709Z,82.01
2023-04-16T04:37:16.662Z,82.23
2023-04-16T04:39:44.241Z,82.21
2023-04-16T04:42:12.560Z,81.93
2023-04-16T04:44:40.388Z,81.81
2023-04-16T04:47:09.115Z,81.06
2023-04-16T04:49:35.998Z,81.42
2023-04-16T04:52:03.490Z,81.59
2023-04-16T04:54:32.703Z,81.67
2023-04-16T04:56:59.701Z,81.81
2023-04-16T04:59:26.769Z,81.67
2023-04-16T05:01:53.847Z,81.56
2023-04-16T05:04:20.608Z,81.59
2023-04-16T05:06:47.424Z,81.32
2023-04-16T05:09:14.140Z,81.07
2023-04-16T05:11:42.200Z,81.66
2023-04-16T05:14:09.018Z,81.40
2023-04-16T05:16:38.871Z,81.25
2023-04-16T05:19:05.711Z,81.03
2023-04-16T05:21:32.567Z,81.77
2023-04-16T05:23:59.270Z,81.39
2023-04-16T05:26:26.200Z,81.26
2023-04-16T05:28:52.998Z,81.29
2023-04-16T05:31:20.087Z,81.45
2023-04-16T05:33:46.882Z,81.25
2023-04-16T05:36:13.868Z,81.91
2023-04-16T05:38:40.868Z,81.22
2023-04-16T05:41:07.652Z,80.94
2023-04-16T05:43:34.529Z,81.20
2023-04-16T05:46:01.404Z,81.23
2023-04-16T05:48:28.267Z,80.75
2023-04-16T05:50:54.983Z,81.21
2023-04-16T05:53:22.257Z,81.28
2023-04-16T05:55:49.248Z,81.06
2023-04-16T05:58:16.129Z,80.58
2023-04-16T06:00:42.943Z,80.98
2023-04-16T06:03:09.835Z,80.84
2023-04-16T06:05:36.926Z,81.16
2023-04-16T06:08:03.781Z,81.06
2023-04-16T06:10:31.800Z,80.48
2023-04-16T06:13:00.006Z,80.72
2023-04-16T06:15:27.294Z,80.82
2023-04-16T06:17:56.143Z,80.64
2023-04-16T06:20:27.571Z,80.58
2023-04-16T06:22:58.491Z,81.12
2023-04-16T06:25:34.158Z,80.53
2023-04-16T06:28:02.537Z,80.37
2023-04-16T06:30:32.234Z,80.83
2023-04-16T06:33:08.514Z,80.42
2023-04-16T06:36:03.991Z,80.58
2023-04-16T06:38:32.041Z,80.44
2023-04-16T06:40:59.826Z,80.53
2023-04-16T06:43:27.130Z,80.27
2023-04-16T06:45:55.324Z,80.23
2023-04-16T06:48:23.578Z,80.64
2023-04-16T06:50:52.989Z,80.39
2023-04-16T06:53:26.836Z,80.54
2023-04-16T06:55:56.871Z,79.80
2023-04-16T06:58:24.538Z,79.97
2023-04-16T07:00:51.448Z,80.14
2023-04-16T07:03:18.545Z,80.32
2023-04-16T07:05:45.428Z,80.75
2023-04-16T07:08:12.308Z,80.58
2023-04-16T07:10:39.684Z,80.39
2023-04-16T07:13:06.775Z,80.43
2023-04-16T07:15:33.604Z,80.52
2023-04-16T07:18:00.882Z,79.73
2023-04-16T07:20:27.761Z,80.39
2023-04-16T07:22:54.920Z,80.90
2023-04-16T07:25:21.814Z,80.83
2023-04-16T07:27:48.559Z,80.62
2023-04-16T07:30:15.884Z,80.82
2023-04-16T07:32:42.763Z,80.88
2023-04-16T07:35:09.782Z,80.82
2023-04-16T07:37:36.450Z,80.65
2023-04-16T07:40:04.645Z,80.09
2023-04-16T07:42:32.003Z,80.34
2023-04-16T07:44:58.781Z,80.25
2023-04-16T07:47:26.560Z,79.95
2023-04-16T07:49:53.852Z,79.75
2023-04-16T07:52:21.108Z,79.36
2023-04-16T07:54:47.874Z,79.50
2023-04-16T07:57:15.761Z,79.78
2023-04-16T07:59:42.989Z,79.89
2023-04-16T08:02:14.353Z,79.95
2023-04-16T08:04:44.768Z,79.99
2023-04-16T08:07:11.923Z,79.78
2023-04-16T08:09:48.596Z,79.65
2023-04-16T08:12:17.177Z,79.15
2023-04-16T08:14:45.763Z,79.03
2023-04-16T08:17:14.039Z,79.47
2023-04-16T08:19:45.198Z,79.09
2023-04-16T08:22:12.728Z,79.02
2023-04-16T08:24:39.742Z,79.04
2023-04-16T08:27:17.899Z,79.08
2023-04-16T08:29:47.586Z,79.12
2023-04-16T08:32:15.439Z,79.05
2023-04-16T08:34:42.465Z,78.67
2023-04-16T08:37:09.752Z,79.08
2023-04-16T08:39:37.895Z,79.23
2023-04-16T08:42:12.210Z,79.31
2023-04-16T08:44:52.102Z,78.98
2023-04-16T08:47:23.890Z,78.64
2023-04-16T08:49:56.814Z,78.52
2023-04-16T08:52:31.313Z,78.23
2023-04-16T08:55:08.918Z,78.31
2023-04-16T08:57:49.371Z,78.81
2023-04-16T09:00:16.921Z,78.49
2023-04-16T09:02:46.062Z,77.89
2023-04-16T09:05:17.338Z,77.19
2023-04-16T09:07:48.270Z,78.27
2023-04-16T09:10:15.746Z,78.64
2023-04-16T09:12:43.821Z,78.10
2023-04-16T09:15:12.014Z,77.94
2023-04-16T09:17:42.113Z,78.19
2023-04-16T09:20:11.073Z,77.33
2023-04-16T09:22:38.799Z,77.56
2023-04-16T09:25:06.649Z,77.18
2023-04-16T09:27:33.609Z,77.24
2023-04-16T09:30:27.054Z,77.52
2023-04-16T09:33:22.771Z,77.00
2023-04-16T09:35:51.878Z,76.39
2023-04-16T09:38:20.189Z,76.78
2023-04-16T09:40:47.732Z,77.34
2023-04-16T09:43:18.762Z,76.67
2023-04-16T09:45:53.315Z,76.76
2023-04-16T09:48:30.392Z,77.27
2023-04-16T09:50:58.603Z,76.92
2023-04-16T09:53:30.391Z,76.69
2023-04-16T09:56:02.270Z,76.71
2023-04-16T09:58:30.532Z,76.68
2023-04-16T10:01:07.264Z,76.12
2023-04-16T10:03:35.872Z,76.57
2023-04-16T10:06:20.840Z,76.40
2023-04-16T10:08:53.813Z,76.19
2023-04-16T10:11:21.699Z,76.07
2023-04-16T10:13:49.284Z,75.89
2023-04-16T10:16:16.375Z,75.69
2023-04-16T10:18:44.915Z,76.06
2023-04-16T10:21:12.918Z,75.71
2023-04-16T10:23:40.711Z,76.04
2023-04-16T10:26:08.112Z,75.64
2023-04-16T10:28:36.489Z,74.96
2023-04-16T10:31:05.664Z,75.45
2023-04-16T10:33:37.653Z,75.62
2023-04-16T10:36:16.187Z,75.37
2023-04-16T10:38:48.517Z,75.18
2023-04-16T10:41:17.559Z,74.33
2023-04-16T10:43:49.540Z,74.60
2023-04-16T10:46:35.728Z,73.58
2023-04-16T10:49:15.191Z,73.93
2023-04-16T10:51:42.572Z,73.65
2023-04-16T10:54:14.702Z,73.66
2023-04-16T10:56:46.025Z,73.49
2023-04-16T10:59:13.757Z,71.42
2023-04-16T11:01:45.544Z,70.50
2023-04-16T11:04:29.357Z,71.80
2023-04-16T11:07:15.655Z,72.27
2023-04-16T11:09:53.310Z,73.47
2023-04-16T11:12:25.073Z,74.57
2023-04-16T11:14:54.731Z,74.54
2023-04-16T11:17:22.770Z,75.72
2023-04-16T11:19:50.729Z,76.16
2023-04-16T11:22:24.186Z,75.73
2023-04-16T11:24:56.395Z,75.14
2023-04-16T11:27:24.462Z,75.67
2023-04-16T11:30:07.643Z,75.74
2023-04-16T11:32:35.603Z,75.64
2023-04-16T11:35:16.844Z,74.88
2023-04-16T11:37:44.222Z,74.37
2023-04-16T11:40:20.536Z,74.12
2023-04-16T11:42:47.594Z,74.34
2023-04-16T11:45:19.961Z,74.45
2023-04-16T11:47:52.485Z,73.82
2023-04-16T11:50:26.632Z,74.17
2023-04-16T11:52:55.840Z,73.47
2023-04-16T11:55:28.112Z,73.35
2023-04-16T11:57:55.097Z,72.98
2023-04-16T12:00:27.219Z,72.85
2023-04-16T12:02:59.060Z,72.68
2023-04-16T12:05:38.909Z,72.65
2023-04-16T12:08:09.831Z,73.60
2023-04-16T12:10:39.062Z,73.36
2023-04-16T12:13:14.280Z,73.38
2023-04-16T12:15:52.819Z,73.05
2023-04-16T12:18:33.454Z,72.64
2023-04-16T12:21:06.820Z,73.01
2023-04-16T12:23:34.356Z,73.59
2023-04-16T12:26:11.004Z,74.35
2023-04-16T12:28:44.341Z,71.73
2023-04-16T12:31:13.137Z,72.38
2023-04-16T12:33:40.805Z,72.15
2023-04-16T12:36:19.024Z,71.84
2023-04-16T12:39:16.434Z,72.18
2023-04-16T12:45:02.976Z,71.73
2023-04-16T12:49:48.612Z,72.63
2023-04-16T12:52:59.892Z,72.99
2023-04-16T12:55:31.607Z,73.41
2023-04-16T12:58:08.951Z,73.21
2023-04-16T13:00:45.402Z,73.02
2023-04-16T13:03:21.352Z,73.67
2023-04-16T13:06:19.828Z,72.72
2023-04-16T13:08:53.512Z,72.15
2023-04-16T13:11:28.714Z,73.08
2023-04-16T13:14:01.261Z,73.46
2023-04-16T13:16:40.800Z,73.68
2023-04-16T13:19:23.672Z,73.60
2023-04-16T13:21:57.218Z,73.66
2023-04-16T13:24:35.240Z,74.22
2023-04-16T13:27:08.713Z,73.72
2023-04-16T13:32:36.299Z,74.25
2023-04-16T13:35:34.304Z,74.54
2023-04-16T13:37:54.125Z,74.17
2023-04-16T13:40:21.580Z,74.19
2023-04-16T13:42:58.349Z,75.26
2023-04-16T13:45:29.707Z,75.00
2023-04-16T13:47:59.113Z,74.91
2023-04-16T13:50:32.154Z,74.95
2023-04-16T13:53:06.234Z,75.46
2023-04-16T13:55:36.666Z,75.19
2023-04-16T13:58:04.355Z,74.97
2023-04-16T14:00:35.428Z,75.86
2023-04-16T14:03:17.157Z,76.26
2023-04-16T14:05:47.177Z,75.34
2023-04-16T14:08:16.641Z,75.01
2023-04-16T14:10:54.503Z,74.60
2023-04-16T14:13:25.001Z,74.50
2023-04-16T14:15:58.839Z,75.51
2023-04-16T14:18:28.747Z,75.07
2023-04-16T14:21:02.747Z,75.16
2023-04-16T14:23:36.233Z,74.78
2023-04-16T14:26:08.504Z,74.58
2023-04-16T14:28:40.590Z,73.55
2023-04-16T14:31:23.654Z,74.00
2023-04-16T14:33:50.545Z,74.58
2023-04-16T14:36:17.401Z,74.65
2023-04-16T14:38:44.591Z,74.18
2023-04-16T14:41:12.826Z,74.86
2023-04-16T14:43:42.940Z,74.88
2023-04-16T14:46:09.958Z,74.92
2023-04-16T14:48:37.043Z,74.92
2023-04-16T14:51:04.260Z,74.51
2023-04-16T14:53:31.261Z,74.39
2023-04-16T14:55:59.155Z,74.54
2023-04-16T14:58:26.563Z,74.46
2023-04-16T15:00:53.596Z,75.41
2023-04-16T15:03:20.772Z,74.93
2023-04-16T15:05:54.861Z,74.55
2023-04-16T15:08:23.040Z,74.45
2023-04-16T15:10:50.822Z,73.95
2023-04-16T15:13:17.967Z,73.90
2023-04-16T15:15:44.918Z,74.15
2023-04-16T15:18:11.762Z,74.11
2023-04-16T15:20:40.072Z,74.36
2023-04-16T15:23:06.984Z,74.21
2023-04-16T15:25:33.772Z,74.21
2023-04-16T15:28:02.573Z,74.61
2023-04-16T15:30:30.189Z,74.76
2023-04-16T15:32:56.981Z,75.08
2023-04-16T15:35:23.775Z,75.25
2023-04-16T15:37:52.761Z,74.95
2023-04-16T15:40:20.655Z,75.14
2023-04-16T15:42:47.417Z,75.26
2023-04-16T15:45:14.563Z,75.23
2023-04-16T15:47:42.104Z,75.54
2023-04-16T15:50:09.666Z,75.99
2023-04-16T15:52:38.741Z,76.57
2023-04-16T15:55:06.309Z,76.95
2023-04-16T15:57:33.105Z,76.28
2023-04-16T16:00:06.887Z,76.15
2023-04-16T16:02:34.660Z,76.33
2023-04-16T16:05:01.782Z,76.25
2023-04-16T16:07:28.757Z,76.17
2023-04-16T16:09:56.376Z,76.64
2023-04-16T16:12:23.693Z,76.65
2023-04-16T16:14:50.951Z,77.72
2023-04-16T16:17:19.154Z,77.25
2023-04-16T16:19:49.360Z,77.49
2023-04-16T16:22:20.414Z,77.54
2023-04-16T16:24:56.612Z,77.97
2023-04-16T16:27:23.451Z,78.13
2023-04-16T16:29:50.394Z,77.56
2023-04-16T16:32:17.130Z,77.17
2023-04-16T16:34:43.921Z,77.62
2023-04-16T16:37:10.860Z,77.83
2023-04-16T16:39:38.862Z,77.43
2023-04-16T16:42:06.012Z,77.31
2023-04-16T16:44:33.156Z,77.87
2023-04-16T16:47:00.364Z,77.59
2023-04-16T16:49:27.348Z,77.38
2023-04-16T16:51:53.981Z,77.74
2023-04-16T16:54:20.924Z,77.75
2023-04-16T16:56:47.773Z,77.72
2023-04-16T16:59:18.390Z,77.06
2023-04-16T17:01:45.603Z,77.00
2023-04-16T17:04:12.589Z,77.68
2023-04-16T17:06:41.909Z,78.76
2023-04-16T17:09:08.851Z,78.76
2023-04-16T17:11:35.993Z,77.74
2023-04-16T17:14:02.754Z,77.67
2023-04-16T17:16:29.538Z,77.66
2023-04-16T17:18:57.337Z,77.95
2023-04-16T17:21:24.974Z,77.92
2023-04-16T17:23:51.742Z,77.92
2023-04-16T17:26:18.636Z,78.19
2023-04-16T17:28:47.548Z,78.42
2023-04-16T17:31:16.650Z,78.04
2023-04-16T17:33:43.908Z,78.75
2023-04-16T17:36:10.701Z,79.05
2023-04-16T17:38:37.359Z,79.02
2023-04-16T17:41:04.361Z,79.19
2023-04-16T17:43:31.313Z,79.07
2023-04-16T17:45:58.202Z,78.97
2023-04-16T17:48:28.014Z,78.80
2023-04-16T17:50:54.756Z,78.78
2023-04-16T17:53:22.578Z,78.45
2023-04-16T17:55:56.952Z,79.31
2023-04-16T17:58:23.867Z,80.78
2023-04-16T18:00:50.695Z,79.99
2023-04-16T18:03:18.764Z,79.67
2023-04-16T18:05:46.781Z,80.00
2023-04-16T18:08:13.390Z,79.06
2023-04-16T18:10:40.156Z,79.68
2023-04-16T18:13:06.844Z,79.07
2023-04-16T18:15:41.570Z,78.77
2023-04-16T18:18:08.386Z,78.94
2023-04-16T18:20:35.414Z,79.34
2023-04-16T18:23:03.149Z,79.78
2023-04-16T18:25:34.581Z,79.35
2023-04-16T18:28:03.795Z,79.01
2023-04-16T18:30:30.750Z,78.76
2023-04-16T18:35:27.125Z,78.97
2023-04-16T18:37:54.871Z,79.53
2023-04-16T18:40:21.574Z,79.66
2023-04-16T18:42:48.554Z,79.44
2023-04-16T18:45:21.164Z,79.92
2023-04-16T18:47:50.142Z,79.44
2023-04-16T18:50:17.074Z,79.26
2023-04-16T18:52:43.816Z,79.56
2023-04-16T18:55:10.743Z,79.59
2023-04-16T18:57:37.482Z,80.09
2023-04-16T19:00:09.435Z,80.10
2023-04-16T19:02:36.269Z,79.76
2023-04-16T19:05:03.027Z,79.91
2023-04-16T19:07:29.751Z,79.66
2023-04-16T19:09:56.941Z,79.85
2023-04-16T19:12:23.791Z,79.54
2023-04-16T19:14:51.781Z,80.08
2023-04-16T19:17:18.506Z,79.58
2023-04-16T19:19:46.738Z,80.17
2023-04-16T19:22:13.498Z,79.89
2023-04-16T19:24:41.500Z,80.15
2023-04-16T19:27:08.150Z,79.84
2023-04-16T19:29:35.645Z,80.07
2023-04-16T19:32:02.700Z,80.43
2023-04-16T19:34:29.485Z,80.40
2023-04-16T19:36:56.199Z,80.02
2023-04-16T19:39:26.740Z,80.06
2023-04-16T19:41:53.465Z,80.86
2023-04-16T19:44:23.329Z,80.63
2023-04-16T19:46:50.164Z,81.67
2023-04-16T19:49:16.894Z,81.56
2023-04-16T19:51:43.600Z,81.16
2023-04-16T19:54:10.285Z,81.12
2023-04-16T19:56:36.984Z,81.12
2023-04-16T19:59:03.809Z,80.50
2023-04-16T20:01:56.480Z,80.62
2023-04-16T20:04:23.896Z,79.84
2023-04-16T20:06:51.381Z,80.18
2023-04-16T20:09:20.044Z,80.65
2023-04-16T20:11:47.340Z,80.41
2023-04-16T20:14:17.318Z,80.39
2023-04-16T20:16:43.995Z,80.04
2023-04-16T20:19:11.273Z,81.24
2023-04-16T20:21:42.720Z,81.24
2023-04-16T20:24:10.739Z,81.28
2023-04-16T20:26:37.631Z,80.95
2023-04-16T20:29:04.350Z,81.57
2023-04-16T20:31:30.969Z,81.69
2023-04-16T20:33:58.107Z,81.18
2023-04-16T20:36:26.070Z,81.06
2023-04-16T20:38:54.069Z,80.88
2023-04-16T20:41:21.362Z,81.11
2023-04-16T20:43:50.321Z,81.34
2023-04-16T20:46:17.801Z,81.26
2023-04-16T20:48:44.825Z,81.26
2023-04-16T20:51:12.822Z,80.85
2023-04-16T20:53:43.994Z,80.63
2023-04-16T20:56:14.769Z,81.20
2023-04-16T20:58:42.174Z,81.40
2023-04-16T21:01:10.257Z,81.41
2023-04-16T21:03:37.421Z,81.51
2023-04-16T21:06:04.693Z,81.28
2023-04-16T21:08:31.664Z,80.99
2023-04-16T21:10:58.645Z,81.08
2023-04-16T21:13:29.683Z,80.87
2023-04-16T21:15:59.539Z,81.29
2023-04-16T21:18:26.574Z,81.09
2023-04-16T21:20:53.303Z,80.54
2023-04-16T21:23:20.193Z,80.70
2023-04-16T21:25:46.880Z,81.62
2023-04-16T21:28:14.111Z,81.93
2023-04-16T21:30:41.435Z,81.72
2023-04-16T21:33:08.483Z,81.21
2023-04-16T21:35:35.432Z,81.02
2023-04-16T21:38:02.166Z,81.21
2023-04-16T21:40:28.934Z,81.64
2023-04-16T21:42:55.645Z,81.45
2023-04-16T21:45:23.288Z,81.34
2023-04-16T21:47:50.091Z,81.54
2023-04-16T21:50:16.872Z,81.64
2023-04-16T21:52:46.729Z,80.74
2023-04-16T21:55:14.406Z,81.16
2023-04-16T21:57:41.109Z,81.78
2023-04-16T22:00:14.441Z,81.58
2023-04-16T22:02:42.241Z,81.43
2023-04-16T22:05:09.487Z,81.68
2023-04-16T22:07:36.781Z,81.47
2023-04-16T22:10:06.850Z,80.91
2023-04-16T22:12:33.676Z,80.35
2023-04-16T22:15:02.917Z,81.46
2023-04-16T22:17:30.159Z,81.06
2023-04-16T22:20:00.459Z,81.05
2023-04-16T22:22:27.144Z,81.25
2023-04-16T22:24:53.912Z,80.89
2023-04-16T22:27:20.532Z,80.80
2023-04-16T22:29:47.396Z,82.13
2023-04-16T22:32:14.149Z,81.05
2023-04-16T22:34:40.971Z,81.10
2023-04-16T22:37:08.182Z,80.68
2023-04-16T22:39:35.031Z,81.55
2023-04-16T22:42:02.626Z,82.02
2023-04-16T22:44:29.392Z,81.69
2023-04-16T22:46:56.197Z,82.09
2023-04-16T22:49:22.864Z,82.44
2023-04-16T22:51:49.692Z,81.34
2023-04-16T22:54:16.349Z,80.71
2023-04-16T22:56:43.068Z,81.77
2023-04-16T22:59:10.080Z,81.42
2023-04-16T23:01:37.208Z,81.57
2023-04-16T23:04:04.053Z,81.85
2023-04-16T23:06:31.620Z,81.39
2023-04-16T23:08:58.515Z,80.98
2023-04-16T23:11:25.390Z,81.58
2023-04-16T23:13:52.514Z,81.94
2023-04-16T23:16:19.255Z,81.44
2023-04-16T23:18:46.124Z,81.52
2023-04-16T23:21:12.838Z,81.89
2023-04-16T23:23:39.534Z,81.44
2023-04-16T23:26:06.427Z,81.32
2023-04-16T23:28:33.495Z,81.57
2023-04-16T23:31:00.420Z,81.80
2023-04-16T23:33:27.291Z,81.52
2023-04-16T23:35:54.083Z,81.23
2023-04-16T23:38:20.912Z,81.98
2023-04-16T23:40:47.598Z,82.00
2023-04-16T23:43:14.324Z,81.81
2023-04-16T23:45:41.195Z,81.92
2023-04-16T23:48:07.936Z,81.86
2023-04-16T23:50:34.682Z,81.50
2023-04-16T23:53:01.470Z,81.75
2023-04-16T23:55:28.134Z,81.57
2023-04-16T23:57:54.786Z,81.58
